Holdridge, Nebraska
Current Conditions -  °F | °C
As of 4:15 AM on Sunday 25 Jan 2015 (Local Time) from KHDE Reporting Station
Clear Clear  
Wind Chill: 29°   Ceiling: Unl
Heat Index: 39°   Visibility: 10mi
Dew Point: 28°   Wind: 21mph
Humidity: 64%   Direction: 330°NNW
Pressure: 29.9"   Gusts: 36mph
Location:  40.4958°N, 99.3198°W
Report Text: KHDE 251015Z AUTO 33018G31KT 10SM CLR 04/M02 A2990 RMK AO2 T00411022
Loading
Personal Weather Stations






























Interactive Weather Map New forecast layout! Learn more

10-Day Weather Forecast

Advertisements
Track Severe Weather on mobile